x

Hi-a389 Tabs V (42047) Weather Station

3:00pm - Fri 27th Mar 2015 All times are CDT. -5 hours from GMT.

  • Wind
    16mph, 20mph gusts
  • Sea Temp 74°f
  • Sea Pressure 1020.6mb
  • Hi-a389 Tabs V
  • Hi-a389 Tabs V

More Historic Weather Station data

Upgrade to MSW Pro to gain access to the past 30 days of data for over 8000 Wavebouys and Weather Stations around the globe.

Join Pro

Comparision Forecast

View Surf forecast
   
Fri 03/27 3:00pm 16 20 mph 1020.6mb 74f
2:00pm 16 20 mph 1020.9mb 73f
12:00pm 13 16 mph 1021.8mb 72f
9:00am 16 20 mph 1020.3mb 71f
8:00am 18 22 mph 1019.9mb 71f
7:00am 22 27 mph 1019.6mb 71f
6:00am 25 29 mph 1019.1mb 71f
5:00am 27 31 mph 1018.4mb 71f
4:00am 29 36 mph 1017.6mb 71f
3:00am 27 31 mph 1017.3mb 71f
1:00am 25 29 mph 1017.1mb 72f
12:00am 25 29 mph 1016.9mb 72f
Thu 03/26 11:00pm 27 29 mph 1016mb 72f
6:00pm 20 25 mph 1012.8mb 73f
5:00pm 22 25 mph 1012.5mb 73f
4:00pm 20 22 mph 1012.2mb 73f
3:00pm 13 18 mph 1011.8mb 73f
2:00pm 9 13 mph 1012mb 73f
1:00pm 11 18 mph 1012.6mb 73f
12:00pm 13 16 mph 1012.7mb 74f
11:00am 9
mph
1012.4mb 74f
10:00am 7 9 mph 1012.9mb 75f
9:00am 4 7 mph 1012.6mb 75f
7:00am 13 16 mph 1011.7mb 76f
6:00am 13 16 mph 1011.1mb 76f
5:00am 13 16 mph 1011.5mb 76f
3:00am 13 20 mph 1012.4mb 76f
1:00am 13 18 mph 1012.9mb 76f
12:00am 13 16 mph 1013.1mb 76f
Wed 03/25 11:00pm 9 13 mph 1014mb 76f
6:00pm 16 20 mph 1014.3mb 77f
5:00pm 16 18 mph 1014.5mb 77f
4:00pm 13 18 mph 1014.6mb 77f
3:00pm 13 16 mph 1015.2mb 77f
2:00pm 11 16 mph 1015.9mb 77f
12:00pm 11 13 mph 1017.3mb 77f
10:00am 9 11 mph 1017.3mb 77f
9:00am 7 11 mph 1017mb 77f
8:00am 4 9 mph 1016.4mb 77f
7:00am 7 9 mph 1016.2mb 77f
6:00am 7 9 mph 1015.7mb 77f
5:00am  -  mph 1015.5mb 77f
4:00am 38
mph
1015.7mb 77f
3:00am 11 16 mph 1015.9mb 77f
2:00am 11 16 mph 1016.3mb 77f
12:00am 7 11 mph 1017.1mb 77f
Tue 03/24 5:00pm 4 7 mph 1016.5mb 78f
4:00pm 4 7 mph 1016.6mb 78f
3:00pm 4 7 mph 1017mb 78f
2:00pm 2 7 mph 1017.3mb 78f
1:00pm 4 7 mph 1017.9mb 78f
12:00pm  -  mph 1018.4mb 77f
11:00am 2 7 mph 1018.3mb 77f
10:00am 4 7 mph 1018.4mb 77f
9:00am 4 7 mph 1018.1mb 77f
8:00am 4 7 mph 1017.6mb 77f
7:00am 4 9 mph 1017.3mb 77f
6:00am 4 9 mph 1017mb 77f
5:00am 7 11 mph 1016.8mb 77f
4:00am 7 11 mph 1017mb 77f
3:00am 7 11 mph 1017.5mb 77f
2:00am 9 13 mph 1018mb 76f
12:00am 11 16 mph 1018.5mb 76f
Mon 03/23 11:00pm 11 16 mph 1018.8mb 75f